Time;durP1;ratioP1;P1;durP2;ratioP2;P2;SDS_P1;SDS_P2;PMS_P1;PMS_P2;Temp;Humidity;BMP_temperature;BMP_pressure;BME280_temperature;BME280_humidity;BME280_pressure;Samples;Min_cycle;Max_cycle;Signal;HPM_P1;HPM_P2
2023/03/24 00:01:30;;;;;;;;;;;11.70;99.90;;;;;;5073430;28;19966;-59
2023/03/24 00:03:56;;;;;;;;;;;11.70;99.90;;;;;;5074302;28;19923;-60
2023/03/24 00:06:21;;;;;;;;;;;11.70;99.90;;;;;;5074678;28;19913;-59
2023/03/24 00:08:47;;;;;;;;;;;11.70;99.90;;;;;;5073559;28;19995;-59
2023/03/24 00:11:13;;;;;;;;;;;11.70;99.90;;;;;;5074214;28;20370;-60
2023/03/24 00:13:39;;;;;;;;;;;11.70;99.90;;;;;;5074184;28;19910;-61
2023/03/24 00:16:10;;;;;;;;;;;11.70;99.90;;;;;;5073263;28;19913;-60
2023/03/24 00:18:38;;;;;;;;;;;11.70;99.90;;;;;;5074205;28;19909;-60
2023/03/24 00:21:03;;;;;;;;;;;11.70;99.90;;;;;;5073922;28;19999;-60
2023/03/24 00:23:31;;;;;;;;;;;11.60;99.90;;;;;;5073272;28;20335;-59
2023/03/24 00:26:01;;;;;;;;;;;11.60;99.90;;;;;;5074541;28;19908;-61
2023/03/24 00:28:36;;;;;;;;;;;11.60;99.90;;;;;;5093083;28;20445;-60
2023/03/24 00:31:02;;;;;;;;;;;11.60;99.90;;;;;;5094097;28;19915;-59
2023/03/24 00:33:34;;;;;;;;;;;11.60;99.90;;;;;;5094148;28;19935;-61
2023/03/24 00:36:04;;;;;;;;;;;11.60;99.90;;;;;;5093213;28;19946;-60
2023/03/24 00:38:30;;;;;;;;;;;11.60;99.90;;;;;;5094034;28;20347;-60
2023/03/24 00:40:55;;;;;;;;;;;11.60;99.90;;;;;;5093922;28;19915;-59
2023/03/24 00:43:21;;;;;;;;;;;11.60;99.90;;;;;;5092923;28;20355;-59
2023/03/24 00:45:46;;;;;;;;;;;11.60;99.90;;;;;;5093570;28;20387;-60
2023/03/24 00:48:13;;;;;;;;;;;11.60;99.90;;;;;;5093751;28;19919;-59
2023/03/24 00:50:38;;;;;;;;;;;11.60;99.90;;;;;;5093038;28;19915;-59
2023/03/24 00:53:04;;;;;;;;;;;11.60;99.90;;;;;;5093556;28;19908;-60
2023/03/24 00:55:30;;;;;;;;;;;11.60;99.90;;;;;;5093608;28;20394;-60
2023/03/24 00:57:56;;;;;;;;;;;11.60;99.90;;;;;;5092712;28;19912;-60
2023/03/24 01:00:23;;;;;;;;;;;11.50;99.90;;;;;;5093445;28;20279;-59
2023/03/24 01:02:52;;;;;;;;;;;11.60;99.90;;;;;;5093095;28;19927;-60
2023/03/24 01:05:19;;;;;;;;;;;11.60;99.90;;;;;;5092699;28;19908;-59
2023/03/24 01:07:50;;;;;;;;;;;11.60;99.90;;;;;;5092864;28;19915;-59
2023/03/24 01:10:20;;;;;;;;;;;11.50;99.90;;;;;;5092371;28;20413;-59
2023/03/24 01:12:46;;;;;;;;;;;11.50;99.90;;;;;;5093263;28;19914;-59
2023/03/24 01:15:15;;;;;;;;;;;11.50;99.90;;;;;;5093265;28;20440;-60
2023/03/24 01:17:40;;;;;;;;;;;11.50;99.90;;;;;;5092719;28;20418;-59
2023/03/24 01:20:07;;;;;;;;;;;11.50;99.90;;;;;;5093177;28;19915;-60
2023/03/24 01:22:36;;;;;;;;;;;11.60;99.90;;;;;;5093149;28;19962;-59
2023/03/24 01:25:08;;;;;;;;;;;11.50;99.90;;;;;;5092272;28;19923;-59
2023/03/24 01:27:35;;;;;;;;;;;11.50;99.90;;;;;;5091901;28;19977;-60
2023/03/24 01:30:01;;;;;;;;;;;11.50;99.90;;;;;;5084041;28;19915;-60
2023/03/24 01:32:27;;;;;;;;;;;11.50;99.90;;;;;;5077943;28;20040;-61
2023/03/24 01:34:53;;;;;;;;;;;11.60;99.90;;;;;;5092952;28;19959;-60
2023/03/24 01:37:19;;;;;;;;;;;11.50;99.90;;;;;;5092919;28;20371;-60
2023/03/24 01:39:44;;;;;;;;;;;11.60;99.90;;;;;;5091050;28;20045;-60
2023/03/24 01:42:17;;;;;;;;;;;11.60;99.90;;;;;;5072671;28;19915;-60
2023/03/24 01:44:44;;;;;;;;;;;11.60;99.90;;;;;;5072723;28;20327;-60
2023/03/24 01:47:10;;;;;;;;;;;11.60;99.90;;;;;;5071791;28;20267;-60
2023/03/24 01:49:37;;;;;;;;;;;11.60;99.90;;;;;;5072724;28;20360;-60
2023/03/24 01:52:04;;;;;;;;;;;11.60;99.90;;;;;;5072536;28;20018;-61
2023/03/24 01:54:39;;;;;;;;;;;11.60;99.90;;;;;;5071774;28;20355;-59
2023/03/24 01:57:05;;;;;;;;;;;11.60;99.90;;;;;;5072221;28;20446;-60
2023/03/24 01:59:32;;;;;;;;;;;11.60;99.90;;;;;;5072481;28;19919;-59
2023/03/24 02:02:02;;;;;;;;;;;11.60;99.90;;;;;;5071490;28;19921;-60
2023/03/24 02:04:37;;;;;;;;;;;11.60;99.90;;;;;;5072148;28;20394;-60
2023/03/24 02:07:23;;;;;;;;;;;11.60;99.90;;;;;;5071651;28;19923;-60
2023/03/24 02:09:48;;;;;;;;;;;11.70;99.90;;;;;;5057910;28;19924;-60
2023/03/24 02:12:15;;;;;;;;;;;11.70;99.90;;;;;;5072316;28;19912;-60
2023/03/24 02:14:40;;;;;;;;;;;11.70;99.90;;;;;;5071591;28;19915;-61
2023/03/24 02:17:25;;;;;;;;;;;11.70;99.90;;;;;;5072396;28;20355;-60
2023/03/24 02:19:59;;;;;;;;;;;11.70;99.90;;;;;;5072548;28;19999;-59
2023/03/24 02:22:44;;;;;;;;;;;11.70;99.90;;;;;;5075469;28;19908;-60
2023/03/24 02:25:24;;;;;;;;;;;11.80;99.90;;;;;;5076165;28;19966;-60
2023/03/24 02:28:05;;;;;;;;;;;11.80;99.90;;;;;;5089893;28;19908;-60
2023/03/24 02:30:45;;;;;;;;;;;11.80;99.90;;;;;;5096529;28;19913;-60
2023/03/24 02:33:29;;;;;;;;;;;11.80;99.90;;;;;;5096389;28;19912;-60
2023/03/24 02:35:54;;;;;;;;;;;11.90;99.90;;;;;;5095056;28;19974;-61
2023/03/24 02:38:29;;;;;;;;;;;11.90;99.90;;;;;;5096545;28;19912;-61
2023/03/24 02:41:07;;;;;;;;;;;11.90;99.90;;;;;;5096130;28;19961;-59
2023/03/24 02:43:38;;;;;;;;;;;11.90;99.90;;;;;;5095443;28;19915;-61
2023/03/24 02:46:12;;;;;;;;;;;11.90;99.90;;;;;;5096051;28;19916;-60
2023/03/24 02:48:53;;;;;;;;;;;11.90;99.90;;;;;;5096156;28;19915;-61
2023/03/24 02:51:33;;;;;;;;;;;11.90;99.90;;;;;;5096045;28;19908;-59
2023/03/24 02:54:17;;;;;;;;;;;11.90;99.90;;;;;;5095928;28;19908;-60
2023/03/24 02:56:48;;;;;;;;;;;11.90;99.90;;;;;;5089560;28;20275;-59
2023/03/24 02:59:18;;;;;;;;;;;11.90;99.90;;;;;;5075709;28;20003;-59
2023/03/24 03:01:52;;;;;;;;;;;11.90;99.90;;;;;;5076474;28;20012;-60
2023/03/24 03:04:31;;;;;;;;;;;11.90;99.90;;;;;;5074707;28;19959;-59
2023/03/24 03:06:58;;;;;;;;;;;11.90;99.90;;;;;;5075594;28;19912;-59
2023/03/24 03:09:25;;;;;;;;;;;11.90;99.90;;;;;;5075512;28;20004;-59
2023/03/24 03:11:53;;;;;;;;;;;11.90;99.90;;;;;;5074870;28;20022;-60
2023/03/24 03:14:23;;;;;;;;;;;12.00;99.90;;;;;;5075725;28;19943;-59
2023/03/24 03:17:07;;;;;;;;;;;12.00;99.90;;;;;;5075258;28;19947;-61
2023/03/24 03:19:49;;;;;;;;;;;12.00;99.90;;;;;;5075244;28;19912;-58
2023/03/24 03:22:20;;;;;;;;;;;12.00;99.90;;;;;;5075093;28;19908;-58
2023/03/24 03:24:49;;;;;;;;;;;12.00;99.90;;;;;;5074396;28;19916;-59
2023/03/24 03:27:17;;;;;;;;;;;12.00;99.90;;;;;;5084163;28;20282;-59
2023/03/24 03:29:45;;;;;;;;;;;12.00;99.90;;;;;;5095321;28;19928;-58
2023/03/24 03:32:14;;;;;;;;;;;12.10;99.90;;;;;;5094075;28;20377;-58
2023/03/24 03:34:44;;;;;;;;;;;12.10;99.90;;;;;;5094715;28;19908;-59
2023/03/24 03:37:17;;;;;;;;;;;12.10;99.90;;;;;;5095056;28;19915;-59
2023/03/24 03:39:46;;;;;;;;;;;12.10;99.90;;;;;;5094675;28;19908;-58
2023/03/24 03:42:12;;;;;;;;;;;12.10;99.90;;;;;;5094974;28;19971;-58
2023/03/24 03:44:37;;;;;;;;;;;12.10;99.90;;;;;;5094964;28;19923;-59
2023/03/24 03:47:03;;;;;;;;;;;12.10;99.90;;;;;;5094209;28;19927;-58
2023/03/24 03:49:29;;;;;;;;;;;12.10;99.90;;;;;;5095039;28;19908;-59
2023/03/24 03:51:56;;;;;;;;;;;12.10;99.90;;;;;;5094626;28;19908;-59
2023/03/24 03:54:22;;;;;;;;;;;12.10;99.90;;;;;;5094052;28;20359;-60
2023/03/24 03:56:49;;;;;;;;;;;12.10;99.90;;;;;;5094241;28;20269;-57
2023/03/24 03:59:32;;;;;;;;;;;12.00;99.90;;;;;;5093799;28;19919;-50
2023/03/24 04:02:02;;;;;;;;;;;12.00;99.90;;;;;;5094421;28;19920;-55
2023/03/24 04:04:28;;;;;;;;;;;11.90;99.90;;;;;;5094685;28;19916;-54
2023/03/24 04:06:56;;;;;;;;;;;11.80;99.90;;;;;;5093337;28;19923;-54
2023/03/24 04:09:45;;;;;;;;;;;11.60;99.90;;;;;;5094523;28;19908;-50
2023/03/24 04:12:17;;;;;;;;;;;11.50;99.90;;;;;;5094538;28;19962;-47
2023/03/24 04:14:43;;;;;;;;;;;11.40;99.90;;;;;;5093761;28;20310;-49
2023/03/24 04:17:08;;;;;;;;;;;11.20;99.90;;;;;;5094366;28;20384;-49
2023/03/24 04:19:36;;;;;;;;;;;11.10;99.90;;;;;;5094420;28;20290;-49
2023/03/24 04:22:12;;;;;;;;;;;11.00;99.90;;;;;;5093422;28;19951;-48
2023/03/24 04:24:48;;;;;;;;;;;10.90;99.90;;;;;;5094304;28;19916;-49
2023/03/24 04:27:25;;;;;;;;;;;10.80;99.90;;;;;;5085544;28;20306;-52
2023/03/24 04:30:02;;;;;;;;;;;10.80;99.90;;;;;;5073966;28;19917;-54
2023/03/24 04:32:45;;;;;;;;;;;10.70;99.90;;;;;;5073490;28;19909;-52
2023/03/24 04:35:14;;;;;;;;;;;10.70;99.90;;;;;;5072976;28;19919;-53
2023/03/24 04:37:40;;;;;;;;;;;10.70;99.90;;;;;;5073812;28;20283;-48
2023/03/24 04:40:10;;;;;;;;;;;10.70;99.90;;;;;;5073610;28;19908;-47
2023/03/24 04:42:47;;;;;;;;;;;10.60;99.90;;;;;;5075383;28;20428;-49
2023/03/24 04:45:13;;;;;;;;;;;10.70;99.90;;;;;;5081444;28;19923;-48
2023/03/24 04:47:52;;;;;;;;;;;10.60;99.90;;;;;;5075671;28;19916;-46
2023/03/24 04:50:31;;;;;;;;;;;10.60;99.90;;;;;;5072348;28;20266;-50
2023/03/24 04:52:56;;;;;;;;;;;10.60;99.90;;;;;;5090107;28;19915;-49
2023/03/24 04:55:42;;;;;;;;;;;10.60;99.90;;;;;;5093520;28;19916;-51
2023/03/24 04:58:08;;;;;;;;;;;10.50;99.90;;;;;;5092454;28;19919;-46
2023/03/24 05:00:35;;;;;;;;;;;10.50;99.90;;;;;;5093647;28;20294;-47
2023/03/24 05:03:01;;;;;;;;;;;10.50;99.90;;;;;;5092583;28;19927;-50
2023/03/24 05:05:27;;;;;;;;;;;10.50;99.90;;;;;;5093509;28;19912;-51
2023/03/24 05:07:53;;;;;;;;;;;10.40;99.90;;;;;;5093063;28;19973;-53
2023/03/24 05:10:19;;;;;;;;;;;10.40;99.90;;;;;;5078731;28;19908;-48
2023/03/24 05:12:44;;;;;;;;;;;10.40;99.90;;;;;;5073246;28;20278;-52
2023/03/24 05:15:11;;;;;;;;;;;10.40;99.90;;;;;;5073016;28;19913;-47
2023/03/24 05:17:36;;;;;;;;;;;10.40;99.90;;;;;;5072794;28;19986;-45
2023/03/24 05:20:03;;;;;;;;;;;10.40;99.90;;;;;;5072982;28;19919;-46
2023/03/24 05:22:30;;;;;;;;;;;10.40;99.90;;;;;;5073195;28;20020;-49
2023/03/24 05:24:56;;;;;;;;;;;10.40;99.90;;;;;;5072296;28;20002;-47
2023/03/24 05:27:21;;;;;;;;;;;10.40;99.90;;;;;;5080548;28;20435;-52
2023/03/24 05:29:46;;;;;;;;;;;10.40;99.90;;;;;;5093154;28;19919;-51
2023/03/24 05:32:12;;;;;;;;;;;10.40;99.90;;;;;;5073960;28;19915;-48
2023/03/24 05:34:37;;;;;;;;;;;10.40;99.90;;;;;;5092860;28;19908;-49
2023/03/24 05:37:03;;;;;;;;;;;10.30;99.90;;;;;;5092674;28;19912;-50
2023/03/24 05:39:28;;;;;;;;;;;10.30;99.90;;;;;;5092170;28;19912;-49
2023/03/24 05:41:54;;;;;;;;;;;10.30;99.90;;;;;;5092931;28;19995;-50
2023/03/24 05:44:19;;;;;;;;;;;10.30;99.90;;;;;;5092956;28;20260;-51
2023/03/24 05:46:45;;;;;;;;;;;10.30;99.90;;;;;;5092112;28;19931;-52
2023/03/24 05:49:11;;;;;;;;;;;10.30;99.90;;;;;;5092803;28;19917;-49
2023/03/24 05:51:37;;;;;;;;;;;10.20;99.90;;;;;;5092725;28;19927;-53
2023/03/24 05:54:04;;;;;;;;;;;10.20;99.90;;;;;;5091847;28;19916;-51
2023/03/24 05:56:31;;;;;;;;;;;10.20;99.90;;;;;;5092175;28;20279;-49
2023/03/24 05:58:57;;;;;;;;;;;10.20;99.90;;;;;;5091925;28;19911;-53
2023/03/24 06:01:24;;;;;;;;;;;10.20;99.90;;;;;;5092527;28;20430;-49
2023/03/24 06:03:49;;;;;;;;;;;10.20;99.90;;;;;;5092519;28;19916;-53
2023/03/24 06:06:15;;;;;;;;;;;10.10;99.90;;;;;;5091816;28;20295;-49
2023/03/24 06:08:43;;;;;;;;;;;10.10;99.90;;;;;;5092782;28;20171;-53
2023/03/24 06:11:09;;;;;;;;;;;10.10;99.90;;;;;;5092658;28;20003;-50
2023/03/24 06:13:35;;;;;;;;;;;10.10;99.90;;;;;;5091817;28;20000;-50
2023/03/24 06:16:00;;;;;;;;;;;10.00;99.90;;;;;;5092412;28;19909;-50
2023/03/24 06:18:26;;;;;;;;;;;10.00;99.90;;;;;;5092600;28;19908;-52
2023/03/24 06:20:55;;;;;;;;;;;10.00;99.90;;;;;;5091692;28;20565;-52
2023/03/24 06:23:22;;;;;;;;;;;10.00;99.90;;;;;;5092489;28;19912;-54
2023/03/24 06:25:49;;;;;;;;;;;10.00;99.90;;;;;;5092199;28;19912;-53
2023/03/24 06:28:15;;;;;;;;;;;10.10;99.90;;;;;;5071976;28;19915;-54
2023/03/24 06:30:42;;;;;;;;;;;10.10;99.90;;;;;;5072385;28;19912;-53
2023/03/24 06:33:10;;;;;;;;;;;10.10;99.90;;;;;;5081725;28;19923;-55
2023/03/24 06:35:35;;;;;;;;;;;10.20;99.90;;;;;;5079537;28;19999;-53
2023/03/24 06:38:01;;;;;;;;;;;10.20;99.90;;;;;;5072007;28;19958;-54
2023/03/24 06:40:26;;;;;;;;;;;10.20;99.90;;;;;;5078322;28;19912;-55
2023/03/24 06:42:52;;;;;;;;;;;10.20;99.90;;;;;;5091343;28;19919;-53
2023/03/24 06:45:17;;;;;;;;;;;10.20;99.90;;;;;;5090845;28;19916;-56
2023/03/24 06:47:43;;;;;;;;;;;10.30;99.90;;;;;;5090787;28;20008;-55
2023/03/24 06:50:09;;;;;;;;;;;10.30;99.90;;;;;;5089375;28;19915;-53
2023/03/24 06:52:35;;;;;;;;;;;10.30;99.90;;;;;;5098695;28;19923;-53
2023/03/24 06:55:01;;;;;;;;;;;10.30;99.90;;;;;;5089928;28;19908;-54
2023/03/24 06:57:27;;;;;;;;;;;10.30;99.90;;;;;;5090918;28;19915;-56
2023/03/24 06:59:53;;;;;;;;;;;10.40;99.90;;;;;;5090817;28;20035;-52
2023/03/24 07:02:19;;;;;;;;;;;10.40;99.90;;;;;;5083480;28;20456;-56
2023/03/24 07:04:44;;;;;;;;;;;10.40;99.90;;;;;;5090503;28;19920;-55
2023/03/24 07:07:11;;;;;;;;;;;10.50;99.90;;;;;;5093430;28;19943;-52
2023/03/24 07:09:37;;;;;;;;;;;10.50;99.90;;;;;;5095061;28;20014;-55
2023/03/24 07:12:04;;;;;;;;;;;10.60;99.90;;;;;;5095696;28;19957;-56
2023/03/24 07:14:29;;;;;;;;;;;10.60;99.90;;;;;;5075688;28;19912;-56
2023/03/24 07:16:55;;;;;;;;;;;10.60;99.90;;;;;;5074476;28;20310;-54
2023/03/24 07:19:21;;;;;;;;;;;10.60;99.90;;;;;;5075238;28;19909;-53
2023/03/24 07:21:48;;;;;;;;;;;10.60;99.90;;;;;;5075122;28;20283;-55
2023/03/24 07:24:17;;;;;;;;;;;10.60;99.90;;;;;;5074403;28;19920;-55
2023/03/24 07:26:43;;;;;;;;;;;10.60;99.90;;;;;;5075191;28;19909;-55
2023/03/24 07:29:09;;;;;;;;;;;10.70;99.90;;;;;;5075100;28;19981;-56
2023/03/24 07:31:36;;;;;;;;;;;10.70;99.90;;;;;;5072079;28;19993;-56
2023/03/24 07:34:06;;;;;;;;;;;10.70;99.90;;;;;;5050732;28;19917;-54
2023/03/24 07:36:31;;;;;;;;;;;10.70;99.90;;;;;;5054770;28;19944;-56
2023/03/24 07:38:57;;;;;;;;;;;10.70;99.90;;;;;;5067213;28;20402;-56
2023/03/24 07:41:23;;;;;;;;;;;10.70;99.90;;;;;;5065333;28;20364;-53
2023/03/24 07:43:49;;;;;;;;;;;10.70;99.90;;;;;;5055880;28;20072;-56
2023/03/24 07:46:14;;;;;;;;;;;10.70;99.90;;;;;;5060208;28;20003;-55
2023/03/24 07:48:40;;;;;;;;;;;10.70;99.90;;;;;;5074601;28;19915;-55
2023/03/24 07:51:05;;;;;;;;;;;10.80;99.90;;;;;;5066422;28;20007;-56
2023/03/24 07:53:32;;;;;;;;;;;10.80;99.90;;;;;;5069843;28;19908;-55
2023/03/24 07:55:58;;;;;;;;;;;10.90;99.90;;;;;;5059664;28;19909;-56
2023/03/24 07:58:23;;;;;;;;;;;10.90;99.90;;;;;;5065803;28;19982;-55
2023/03/24 08:00:49;;;;;;;;;;;11.00;99.90;;;;;;5054343;28;19909;-53
2023/03/24 08:03:14;;;;;;;;;;;11.00;99.90;;;;;;5082302;28;19982;-56
2023/03/24 08:05:40;;;;;;;;;;;11.00;99.90;;;;;;5098112;28;19916;-56
2023/03/24 08:08:06;;;;;;;;;;;11.10;99.90;;;;;;5102664;28;19908;-56
2023/03/24 08:10:31;;;;;;;;;;;11.20;99.90;;;;;;5088376;28;19935;-57
2023/03/24 08:12:57;;;;;;;;;;;11.20;99.90;;;;;;5076233;28;19912;-52
2023/03/24 08:15:23;;;;;;;;;;;11.20;99.90;;;;;;5085653;28;20371;-56
2023/03/24 08:17:49;;;;;;;;;;;11.30;99.90;;;;;;5073412;28;19923;-57
2023/03/24 08:20:15;;;;;;;;;;;11.40;99.90;;;;;;5073306;28;19919;-56
2023/03/24 08:22:41;;;;;;;;;;;11.50;99.90;;;;;;5084659;28;19915;-55
2023/03/24 08:25:09;;;;;;;;;;;11.60;99.90;;;;;;5094067;28;19923;-56
2023/03/24 08:27:36;;;;;;;;;;;11.60;99.90;;;;;;5077554;28;19916;-57
2023/03/24 08:30:03;;;;;;;;;;;11.70;99.90;;;;;;5075808;28;20268;-53
2023/03/24 08:32:29;;;;;;;;;;;11.80;99.90;;;;;;5075196;28;19963;-55
2023/03/24 08:34:56;;;;;;;;;;;11.80;99.90;;;;;;5093145;28;19955;-55
2023/03/24 08:37:21;;;;;;;;;;;11.70;99.90;;;;;;5094048;28;19909;-56
2023/03/24 08:39:46;;;;;;;;;;;11.70;99.90;;;;;;5093772;28;19915;-56
2023/03/24 08:42:12;;;;;;;;;;;11.90;99.90;;;;;;5092861;28;19908;-54
2023/03/24 08:44:37;;;;;;;;;;;12.10;99.90;;;;;;5091294;28;19962;-54
2023/03/24 08:47:03;;;;;;;;;;;12.00;99.90;;;;;;5073302;28;20030;-58
2023/03/24 08:49:28;;;;;;;;;;;11.90;99.90;;;;;;5072722;28;20287;-57
2023/03/24 08:51:54;;;;;;;;;;;11.90;99.90;;;;;;5073380;28;19939;-57
2023/03/24 08:54:22;;;;;;;;;;;12.00;99.90;;;;;;5073438;28;19913;-58
2023/03/24 08:56:47;;;;;;;;;;;12.00;99.90;;;;;;5072381;28;20326;-55
2023/03/24 08:59:13;;;;;;;;;;;12.10;99.90;;;;;;5073368;28;19912;-56
2023/03/24 09:01:39;;;;;;;;;;;12.30;99.90;;;;;;5072374;28;19920;-55
2023/03/24 09:04:05;;;;;;;;;;;12.20;99.90;;;;;;5072929;28;19925;-57
2023/03/24 09:06:31;;;;;;;;;;;12.20;99.90;;;;;;5073088;28;19962;-56
2023/03/24 09:08:57;;;;;;;;;;;12.20;99.90;;;;;;5068195;28;19923;-57
2023/03/24 09:11:23;;;;;;;;;;;12.20;99.90;;;;;;5092279;28;19912;-56
2023/03/24 09:13:49;;;;;;;;;;;12.20;99.90;;;;;;5086286;28;19912;-54
2023/03/24 09:16:15;;;;;;;;;;;12.10;99.90;;;;;;5076457;28;19915;-57
2023/03/24 09:18:41;;;;;;;;;;;11.90;99.90;;;;;;5084544;28;19912;-58
2023/03/24 09:21:06;;;;;;;;;;;11.70;99.90;;;;;;5078974;28;20279;-57
2023/03/24 09:23:32;;;;;;;;;;;11.60;99.90;;;;;;5081383;28;19920;-57
2023/03/24 09:25:58;;;;;;;;;;;11.50;99.90;;;;;;5079462;28;19917;-58
2023/03/24 09:28:24;;;;;;;;;;;11.40;99.90;;;;;;5092967;28;19908;-55
2023/03/24 09:30:50;;;;;;;;;;;11.30;99.90;;;;;;5091771;28;19984;-58
2023/03/24 09:33:16;;;;;;;;;;;11.30;99.90;;;;;;5093114;28;19962;-55
2023/03/24 09:35:41;;;;;;;;;;;11.10;99.90;;;;;;5092958;28;19908;-56
2023/03/24 09:38:09;;;;;;;;;;;11.30;99.90;;;;;;5092095;28;19908;-56
2023/03/24 09:40:36;;;;;;;;;;;11.30;99.90;;;;;;5085234;28;20003;-56
2023/03/24 09:43:06;;;;;;;;;;;11.40;99.90;;;;;;5081878;28;19912;-56
2023/03/24 09:45:35;;;;;;;;;;;11.60;99.90;;;;;;5085527;28;19923;-56
2023/03/24 09:48:20;;;;;;;;;;;11.80;99.90;;;;;;5087617;28;19935;-57
2023/03/24 09:51:05;;;;;;;;;;;11.90;99.90;;;;;;5072005;28;19919;-59
2023/03/24 09:53:40;;;;;;;;;;;12.10;99.90;;;;;;5091482;28;19912;-57
2023/03/24 09:56:11;;;;;;;;;;;12.20;99.90;;;;;;5080397;28;20333;-57
2023/03/24 09:58:40;;;;;;;;;;;12.40;99.90;;;;;;5084968;28;20363;-57
2023/03/24 10:01:10;;;;;;;;;;;12.50;99.90;;;;;;5078734;28;20267;-57
2023/03/24 10:03:35;;;;;;;;;;;12.70;99.90;;;;;;5083493;28;19924;-57
2023/03/24 10:06:06;;;;;;;;;;;12.70;99.90;;;;;;5085627;28;19912;-55
2023/03/24 10:08:43;;;;;;;;;;;12.80;99.90;;;;;;5084306;28;20455;-55
2023/03/24 10:11:20;;;;;;;;;;;12.90;99.90;;;;;;5087653;28;19908;-56
2023/03/24 10:14:04;;;;;;;;;;;13.10;98.60;;;;;;5080688;28;19963;-56
2023/03/24 10:16:30;;;;;;;;;;;13.00;92.60;;;;;;5072220;28;19908;-55
2023/03/24 10:19:06;;;;;;;;;;;13.10;97.60;;;;;;5088017;28;19912;-55
2023/03/24 10:21:35;;;;;;;;;;;13.10;99.40;;;;;;5071610;28;20476;-58
2023/03/24 10:24:15;;;;;;;;;;;13.20;99.90;;;;;;5078858;28;19916;-58
2023/03/24 10:26:45;;;;;;;;;;;13.20;99.20;;;;;;5079766;28;20271;-58
2023/03/24 10:29:21;;;;;;;;;;;13.40;99.90;;;;;;5080412;28;19975;-58
2023/03/24 10:32:03;;;;;;;;;;;13.30;95.50;;;;;;5092121;28;19931;-57
2023/03/24 10:34:31;;;;;;;;;;;13.30;96.10;;;;;;5091493;28;19915;-59
2023/03/24 10:36:58;;;;;;;;;;;13.30;94.90;;;;;;5087708;28;19951;-59
2023/03/24 10:39:23;;;;;;;;;;;13.20;95.30;;;;;;5073069;28;19912;-59
2023/03/24 10:41:50;;;;;;;;;;;13.20;96.20;;;;;;5072848;28;19918;-57
2023/03/24 10:44:16;;;;;;;;;;;12.90;90.70;;;;;;5075750;28;19938;-58
2023/03/24 10:46:45;;;;;;;;;;;12.90;95.10;;;;;;5075629;28;20359;-55
2023/03/24 10:49:10;;;;;;;;;;;13.00;96.60;;;;;;5074930;28;19908;-59
2023/03/24 10:51:36;;;;;;;;;;;13.00;92.80;;;;;;5087918;28;19918;-59
2023/03/24 10:54:15;;;;;;;;;;;13.00;93.40;;;;;;5092926;28;19982;-61
2023/03/24 10:56:44;;;;;;;;;;;13.00;97.00;;;;;;5093267;28;19912;-60
2023/03/24 10:59:18;;;;;;;;;;;13.20;92.90;;;;;;5094105;28;20328;-58
2023/03/24 11:01:43;;;;;;;;;;;13.20;91.80;;;;;;5093523;28;20341;-60
2023/03/24 11:04:10;;;;;;;;;;;13.40;92.90;;;;;;5081444;28;19927;-58
2023/03/24 11:06:35;;;;;;;;;;;13.50;93.70;;;;;;5084892;28;20386;-59
2023/03/24 11:09:27;;;;;;;;;;;13.60;96.00;;;;;;5079554;28;19913;-59
2023/03/24 11:11:53;;;;;;;;;;;13.40;85.00;;;;;;5081146;28;19915;-56
2023/03/24 11:14:24;;;;;;;;;;;13.50;84.60;;;;;;5094542;28;19908;-59
2023/03/24 11:16:50;;;;;;;;;;;13.60;80.20;;;;;;5077236;28;19999;-56
2023/03/24 11:19:23;;;;;;;;;;;13.60;80.50;;;;;;5080458;28;19923;-58
2023/03/24 11:21:50;;;;;;;;;;;13.70;80.70;;;;;;5093260;28;20395;-59
2023/03/24 11:24:17;;;;;;;;;;;13.80;80.20;;;;;;5079849;28;19916;-60
2023/03/24 11:26:44;;;;;;;;;;;13.80;76.60;;;;;;5085378;28;19908;-57
2023/03/24 11:29:20;;;;;;;;;;;13.80;78.20;;;;;;5093501;28;19920;-56
2023/03/24 11:31:52;;;;;;;;;;;13.70;75.60;;;;;;5095600;28;19908;-58
2023/03/24 11:34:24;;;;;;;;;;;13.70;76.50;;;;;;5095293;28;19915;-58
2023/03/24 11:37:00;;;;;;;;;;;13.80;79.20;;;;;;5081530;28;20020;-58
2023/03/24 11:39:26;;;;;;;;;;;13.90;80.40;;;;;;5077043;28;19999;-59
2023/03/24 11:42:12;;;;;;;;;;;14.10;76.80;;;;;;5075213;28;19909;-59
2023/03/24 11:44:37;;;;;;;;;;;14.20;79.10;;;;;;5074081;28;19964;-58
2023/03/24 11:47:22;;;;;;;;;;;14.40;76.40;;;;;;5073845;28;19951;-58
2023/03/24 11:49:56;;;;;;;;;;;14.40;77.20;;;;;;5074613;28;20290;-58
2023/03/24 11:52:30;;;;;;;;;;;14.50;80.50;;;;;;5083115;28;19919;-57
2023/03/24 11:54:56;;;;;;;;;;;14.10;76.20;;;;;;5094787;28;19915;-58
2023/03/24 11:57:41;;;;;;;;;;;14.10;80.30;;;;;;5094878;28;19908;-60
2023/03/24 12:00:13;;;;;;;;;;;14.10;82.70;;;;;;5062926;28;19908;-59
2023/03/24 12:02:56;;;;;;;;;;;14.30;89.40;;;;;;5094854;28;19924;-59
2023/03/24 12:05:26;;;;;;;;;;;14.50;81.00;;;;;;5094590;28;19928;-59
2023/03/24 12:08:09;;;;;;;;;;;14.80;88.90;;;;;;5095255;28;19909;-59
2023/03/24 12:10:38;;;;;;;;;;;14.80;80.30;;;;;;5095071;28;19998;-58
2023/03/24 12:13:08;;;;;;;;;;;14.60;76.00;;;;;;5094648;28;20007;-57
2023/03/24 12:15:50;;;;;;;;;;;14.50;80.40;;;;;;5086406;28;19908;-59
2023/03/24 12:18:24;;;;;;;;;;;14.50;83.40;;;;;;5076959;28;19999;-61
2023/03/24 12:20:57;;;;;;;;;;;14.70;83.50;;;;;;5074194;28;19999;-59
2023/03/24 12:23:22;;;;;;;;;;;14.90;82.70;;;;;;5074597;28;20007;-57
2023/03/24 12:26:17;;;;;;;;;;;15.10;80.50;;;;;;5074030;28;20027;-61
2023/03/24 12:28:55;;;;;;;;;;;15.10;81.90;;;;;;5061127;28;19909;-58
2023/03/24 12:31:47;;;;;;;;;;;15.20;84.70;;;;;;5074132;28;20333;-58
2023/03/24 12:34:32;;;;;;;;;;;14.90;78.50;;;;;;5073915;28;20310;-61
2023/03/24 12:37:01;;;;;;;;;;;14.40;72.60;;;;;;5074242;28;19909;-61
2023/03/24 12:39:42;;;;;;;;;;;14.30;82.20;;;;;;5074351;28;19908;-58
2023/03/24 12:42:19;;;;;;;;;;;14.40;76.60;;;;;;5074305;28;19920;-58
2023/03/24 12:44:58;;;;;;;;;;;14.40;76.50;;;;;;5074062;28;19924;-59
2023/03/24 12:47:26;;;;;;;;;;;14.60;77.90;;;;;;5077993;28;19916;-58
2023/03/24 12:50:10;;;;;;;;;;;14.60;79.50;;;;;;5094109;28;19951;-60
2023/03/24 12:52:44;;;;;;;;;;;14.80;79.10;;;;;;5094103;28;19908;-59
2023/03/24 12:55:16;;;;;;;;;;;15.00;72.70;;;;;;5093774;28;20057;-60
2023/03/24 12:57:58;;;;;;;;;;;14.90;71.80;;;;;;5093373;28;19908;-59
2023/03/24 13:00:25;;;;;;;;;;;15.00;69.90;;;;;;5093648;28;19919;-61
2023/03/24 13:02:53;;;;;;;;;;;15.00;68.90;;;;;;5092528;28;19923;-60
2023/03/24 13:05:30;;;;;;;;;;;15.00;72.30;;;;;;5092140;28;20015;-61
2023/03/24 13:07:58;;;;;;;;;;;14.90;68.90;;;;;;5092810;28;19912;-60
2023/03/24 13:10:27;;;;;;;;;;;14.60;70.40;;;;;;5091324;28;19931;-57
2023/03/24 13:13:02;;;;;;;;;;;14.60;73.10;;;;;;5081370;28;19920;-60
2023/03/24 13:15:37;;;;;;;;;;;14.70;73.80;;;;;;5090742;28;19916;-59
2023/03/24 13:18:16;;;;;;;;;;;15.00;82.30;;;;;;5086917;28;19918;-62
2023/03/24 13:20:44;;;;;;;;;;;15.40;75.60;;;;;;5073490;28;20275;-60
2023/03/24 13:23:15;;;;;;;;;;;15.50;77.40;;;;;;5071094;28;19912;-56
2023/03/24 13:25:46;;;;;;;;;;;15.40;72.20;;;;;;5076218;28;20422;-60
2023/03/24 13:28:16;;;;;;;;;;;15.20;69.40;;;;;;5091392;28;19912;-61
2023/03/24 13:30:42;;;;;;;;;;;15.10;71.70;;;;;;5091703;28;19996;-60
2023/03/24 13:33:20;;;;;;;;;;;15.20;75.90;;;;;;5093040;28;19912;-58
2023/03/24 13:36:04;;;;;;;;;;;15.30;71.80;;;;;;5092366;28;19923;-59
2023/03/24 13:38:38;;;;;;;;;;;15.30;71.30;;;;;;5092242;28;19915;-61
2023/03/24 13:41:04;;;;;;;;;;;15.40;70.80;;;;;;5091459;28;20371;-61
2023/03/24 13:43:31;;;;;;;;;;;15.50;70.10;;;;;;5092079;28;19908;-58
2023/03/24 13:46:10;;;;;;;;;;;15.60;68.30;;;;;;5092853;28;19912;-62
2023/03/24 13:48:37;;;;;;;;;;;15.70;69.90;;;;;;5079841;28;19956;-60
2023/03/24 13:51:06;;;;;;;;;;;15.50;71.20;;;;;;5092689;28;20003;-59
2023/03/24 13:53:34;;;;;;;;;;;15.40;70.30;;;;;;5093674;28;19908;-59
2023/03/24 13:56:00;;;;;;;;;;;15.30;71.40;;;;;;5093517;28;19909;-59
2023/03/24 13:58:29;;;;;;;;;;;15.00;71.90;;;;;;5092656;28;19912;-61
2023/03/24 14:01:10;;;;;;;;;;;15.10;73.20;;;;;;5092800;28;19919;-62
2023/03/24 14:03:56;;;;;;;;;;;15.00;73.80;;;;;;5093017;28;20539;-61
2023/03/24 14:06:42;;;;;;;;;;;14.90;74.00;;;;;;5091006;28;19909;-59
2023/03/24 14:09:14;;;;;;;;;;;15.00;72.30;;;;;;5092907;28;19908;-62
2023/03/24 14:11:41;;;;;;;;;;;15.30;73.90;;;;;;5092751;28;19908;-58
2023/03/24 14:14:16;;;;;;;;;;;15.50;71.90;;;;;;5093093;28;20270;-60
2023/03/24 14:17:01;;;;;;;;;;;15.80;74.50;;;;;;5095963;28;19916;-62
2023/03/24 14:19:31;;;;;;;;;;;16.10;75.10;;;;;;5096709;28;19914;-58
2023/03/24 14:22:02;;;;;;;;;;;16.50;70.00;;;;;;5096949;28;19912;-60
2023/03/24 14:24:29;;;;;;;;;;;16.50;69.00;;;;;;5096941;28;19922;-60
2023/03/24 14:26:55;;;;;;;;;;;16.00;67.90;;;;;;5096501;28;19961;-62
2023/03/24 14:29:33;;;;;;;;;;;15.70;74.00;;;;;;5096478;28;19915;-64
2023/03/24 14:32:00;;;;;;;;;;;15.70;73.50;;;;;;5097055;28;19938;-58